sensor_id;sensor_type;location;lat;lon;timestamp;P1;durP1;ratioP1;P2;durP2;ratioP2
19854;SDS011;10088;47.946;2.532;2022-12-07T00:01:16;29.83;;;15.87;;
19854;SDS011;10088;47.946;2.532;2022-12-07T00:03:43;28.80;;;14.93;;
19854;SDS011;10088;47.946;2.532;2022-12-07T00:06:09;24.33;;;14.80;;
19854;SDS011;10088;47.946;2.532;2022-12-07T00:08:35;25.63;;;15.07;;
19854;SDS011;10088;47.946;2.532;2022-12-07T00:11:05;26.20;;;14.63;;
19854;SDS011;10088;47.946;2.532;2022-12-07T00:13:31;25.87;;;14.67;;
19854;SDS011;10088;47.946;2.532;2022-12-07T00:16:04;24.23;;;14.37;;
19854;SDS011;10088;47.946;2.532;2022-12-07T00:18:30;25.90;;;15.03;;
19854;SDS011;10088;47.946;2.532;2022-12-07T00:21:06;25.70;;;15.30;;
19854;SDS011;10088;47.946;2.532;2022-12-07T00:23:32;25.07;;;15.60;;
19854;SDS011;10088;47.946;2.532;2022-12-07T00:26:15;26.27;;;15.77;;
19854;SDS011;10088;47.946;2.532;2022-12-07T00:28:41;26.37;;;15.80;;
19854;SDS011;10088;47.946;2.532;2022-12-07T00:31:11;25.37;;;15.17;;
19854;SDS011;10088;47.946;2.532;2022-12-07T00:33:37;30.37;;;16.03;;
19854;SDS011;10088;47.946;2.532;2022-12-07T00:36:04;24.30;;;15.40;;
19854;SDS011;10088;47.946;2.532;2022-12-07T00:38:32;31.40;;;16.23;;
19854;SDS011;10088;47.946;2.532;2022-12-07T00:40:58;25.67;;;15.97;;
19854;SDS011;10088;47.946;2.532;2022-12-07T00:43:23;25.03;;;15.00;;
19854;SDS011;10088;47.946;2.532;2022-12-07T00:45:49;28.90;;;15.53;;
19854;SDS011;10088;47.946;2.532;2022-12-07T00:48:14;25.33;;;14.80;;
19854;SDS011;10088;47.946;2.532;2022-12-07T00:50:39;25.13;;;16.17;;
19854;SDS011;10088;47.946;2.532;2022-12-07T00:53:05;32.03;;;15.60;;
19854;SDS011;10088;47.946;2.532;2022-12-07T00:55:36;26.57;;;15.73;;
19854;SDS011;10088;47.946;2.532;2022-12-07T00:58:02;21.63;;;14.23;;
19854;SDS011;10088;47.946;2.532;2022-12-07T01:00:28;24.20;;;15.30;;
19854;SDS011;10088;47.946;2.532;2022-12-07T01:02:53;27.27;;;16.50;;
19854;SDS011;10088;47.946;2.532;2022-12-07T01:05:19;29.93;;;17.47;;
19854;SDS011;10088;47.946;2.532;2022-12-07T01:07:44;28.87;;;15.70;;
19854;SDS011;10088;47.946;2.532;2022-12-07T01:10:11;24.47;;;15.07;;
19854;SDS011;10088;47.946;2.532;2022-12-07T01:12:37;22.30;;;15.03;;
19854;SDS011;10088;47.946;2.532;2022-12-07T01:15:02;23.80;;;15.43;;
19854;SDS011;10088;47.946;2.532;2022-12-07T01:17:27;25.23;;;16.10;;
19854;SDS011;10088;47.946;2.532;2022-12-07T01:19:53;24.30;;;15.20;;
19854;SDS011;10088;47.946;2.532;2022-12-07T01:22:18;23.77;;;14.87;;
19854;SDS011;10088;47.946;2.532;2022-12-07T01:24:44;23.63;;;14.10;;
19854;SDS011;10088;47.946;2.532;2022-12-07T01:27:12;28.83;;;15.67;;
19854;SDS011;10088;47.946;2.532;2022-12-07T01:29:38;24.90;;;14.70;;
19854;SDS011;10088;47.946;2.532;2022-12-07T01:32:03;28.23;;;15.53;;
19854;SDS011;10088;47.946;2.532;2022-12-07T01:34:29;26.00;;;16.20;;
19854;SDS011;10088;47.946;2.532;2022-12-07T01:36:54;28.37;;;15.33;;
19854;SDS011;10088;47.946;2.532;2022-12-07T01:39:20;25.20;;;15.30;;
19854;SDS011;10088;47.946;2.532;2022-12-07T01:41:45;26.30;;;15.97;;
19854;SDS011;10088;47.946;2.532;2022-12-07T01:46:40;28.47;;;16.53;;
19854;SDS011;10088;47.946;2.532;2022-12-07T01:49:06;28.53;;;15.83;;
19854;SDS011;10088;47.946;2.532;2022-12-07T01:51:33;27.80;;;16.07;;
19854;SDS011;10088;47.946;2.532;2022-12-07T01:53:59;26.87;;;14.97;;
19854;SDS011;10088;47.946;2.532;2022-12-07T01:56:26;28.70;;;16.10;;
19854;SDS011;10088;47.946;2.532;2022-12-07T01:58:52;29.70;;;16.33;;
19854;SDS011;10088;47.946;2.532;2022-12-07T02:01:18;27.67;;;14.77;;
19854;SDS011;10088;47.946;2.532;2022-12-07T02:03:44;24.53;;;15.27;;
19854;SDS011;10088;47.946;2.532;2022-12-07T02:06:11;28.90;;;15.80;;
19854;SDS011;10088;47.946;2.532;2022-12-07T02:08:37;23.90;;;14.80;;
19854;SDS011;10088;47.946;2.532;2022-12-07T02:11:03;28.43;;;15.70;;
19854;SDS011;10088;47.946;2.532;2022-12-07T02:13:30;27.60;;;16.07;;
19854;SDS011;10088;47.946;2.532;2022-12-07T02:23:41;29.63;;;16.13;;
19854;SDS011;10088;47.946;2.532;2022-12-07T02:31:30;31.13;;;15.33;;
19854;SDS011;10088;47.946;2.532;2022-12-07T02:34:07;30.23;;;15.37;;
19854;SDS011;10088;47.946;2.532;2022-12-07T02:36:38;26.33;;;16.40;;
19854;SDS011;10088;47.946;2.532;2022-12-07T02:39:23;34.07;;;16.20;;
19854;SDS011;10088;47.946;2.532;2022-12-07T02:42:09;36.63;;;15.17;;
19854;SDS011;10088;47.946;2.532;2022-12-07T02:50:10;43.77;;;16.07;;
19854;SDS011;10088;47.946;2.532;2022-12-07T02:52:43;66.57;;;16.67;;
19854;SDS011;10088;47.946;2.532;2022-12-07T02:55:09;190.27;;;22.17;;
19854;SDS011;10088;47.946;2.532;2022-12-07T03:00:06;220.23;;;26.43;;
19854;SDS011;10088;47.946;2.532;2022-12-07T03:03:02;93.27;;;19.47;;
19854;SDS011;10088;47.946;2.532;2022-12-07T03:08:21;159.43;;;21.03;;
19854;SDS011;10088;47.946;2.532;2022-12-07T03:13:22;254.97;;;24.37;;
19854;SDS011;10088;47.946;2.532;2022-12-07T03:18:43;247.93;;;21.33;;
19854;SDS011;10088;47.946;2.532;2022-12-07T03:21:11;268.13;;;22.47;;
19854;SDS011;10088;47.946;2.532;2022-12-07T03:23:39;237.43;;;21.67;;
19854;SDS011;10088;47.946;2.532;2022-12-07T03:26:05;331.63;;;23.53;;
19854;SDS011;10088;47.946;2.532;2022-12-07T03:28:35;317.40;;;24.53;;
19854;SDS011;10088;47.946;2.532;2022-12-07T03:31:12;286.97;;;24.93;;
19854;SDS011;10088;47.946;2.532;2022-12-07T03:36:28;265.07;;;23.03;;
19854;SDS011;10088;47.946;2.532;2022-12-07T03:39:17;237.83;;;21.10;;
19854;SDS011;10088;47.946;2.532;2022-12-07T03:42:09;215.57;;;18.73;;
19854;SDS011;10088;47.946;2.532;2022-12-07T03:44:45;189.43;;;20.10;;
19854;SDS011;10088;47.946;2.532;2022-12-07T03:50:39;242.60;;;20.87;;
19854;SDS011;10088;47.946;2.532;2022-12-07T03:56:55;128.20;;;15.07;;
19854;SDS011;10088;47.946;2.532;2022-12-07T03:59:47;147.63;;;16.87;;
19854;SDS011;10088;47.946;2.532;2022-12-07T04:02:29;217.77;;;17.40;;
19854;SDS011;10088;47.946;2.532;2022-12-07T04:05:08;252.13;;;21.40;;
19854;SDS011;10088;47.946;2.532;2022-12-07T04:07:38;198.47;;;18.30;;
19854;SDS011;10088;47.946;2.532;2022-12-07T04:10:06;233.63;;;19.60;;
19854;SDS011;10088;47.946;2.532;2022-12-07T04:12:48;127.97;;;14.37;;
19854;SDS011;10088;47.946;2.532;2022-12-07T04:15:29;91.30;;;11.93;;
19854;SDS011;10088;47.946;2.532;2022-12-07T04:18:07;104.03;;;13.47;;
19854;SDS011;10088;47.946;2.532;2022-12-07T04:20:39;155.87;;;15.23;;
19854;SDS011;10088;47.946;2.532;2022-12-07T04:23:06;186.93;;;17.03;;
19854;SDS011;10088;47.946;2.532;2022-12-07T04:25:44;183.83;;;16.80;;
19854;SDS011;10088;47.946;2.532;2022-12-07T04:28:13;68.57;;;11.27;;
19854;SDS011;10088;47.946;2.532;2022-12-07T04:30:49;158.20;;;16.33;;
19854;SDS011;10088;47.946;2.532;2022-12-07T04:33:38;107.00;;;14.83;;
19854;SDS011;10088;47.946;2.532;2022-12-07T04:36:13;128.10;;;13.73;;
19854;SDS011;10088;47.946;2.532;2022-12-07T04:38:45;120.97;;;14.00;;
19854;SDS011;10088;47.946;2.532;2022-12-07T04:41:10;112.27;;;12.83;;
19854;SDS011;10088;47.946;2.532;2022-12-07T04:43:36;87.40;;;11.90;;
19854;SDS011;10088;47.946;2.532;2022-12-07T04:46:01;134.53;;;15.33;;
19854;SDS011;10088;47.946;2.532;2022-12-07T04:48:30;120.33;;;12.17;;
19854;SDS011;10088;47.946;2.532;2022-12-07T04:50:56;140.33;;;14.57;;
19854;SDS011;10088;47.946;2.532;2022-12-07T04:53:22;75.97;;;11.77;;
19854;SDS011;10088;47.946;2.532;2022-12-07T04:55:47;86.63;;;12.53;;
19854;SDS011;10088;47.946;2.532;2022-12-07T04:58:13;127.70;;;12.23;;
19854;SDS011;10088;47.946;2.532;2022-12-07T05:00:39;89.53;;;11.13;;
19854;SDS011;10088;47.946;2.532;2022-12-07T05:03:04;124.73;;;14.17;;
19854;SDS011;10088;47.946;2.532;2022-12-07T05:05:29;55.97;;;10.40;;
19854;SDS011;10088;47.946;2.532;2022-12-07T05:07:55;67.23;;;11.00;;
19854;SDS011;10088;47.946;2.532;2022-12-07T05:10:20;76.27;;;10.10;;
19854;SDS011;10088;47.946;2.532;2022-12-07T05:12:46;83.00;;;11.77;;
19854;SDS011;10088;47.946;2.532;2022-12-07T05:15:12;45.10;;;9.57;;
19854;SDS011;10088;47.946;2.532;2022-12-07T05:17:47;54.83;;;9.63;;
19854;SDS011;10088;47.946;2.532;2022-12-07T05:20:12;49.90;;;10.47;;
19854;SDS011;10088;47.946;2.532;2022-12-07T05:22:38;57.70;;;10.47;;
19854;SDS011;10088;47.946;2.532;2022-12-07T05:25:04;57.93;;;11.27;;
19854;SDS011;10088;47.946;2.532;2022-12-07T05:27:29;48.90;;;9.53;;
19854;SDS011;10088;47.946;2.532;2022-12-07T05:29:55;89.20;;;11.90;;
19854;SDS011;10088;47.946;2.532;2022-12-07T05:32:20;37.53;;;9.67;;
19854;SDS011;10088;47.946;2.532;2022-12-07T05:34:45;26.50;;;8.57;;
19854;SDS011;10088;47.946;2.532;2022-12-07T05:37:11;54.70;;;10.63;;
19854;SDS011;10088;47.946;2.532;2022-12-07T05:39:36;94.73;;;12.23;;
19854;SDS011;10088;47.946;2.532;2022-12-07T05:42:06;92.83;;;11.83;;
19854;SDS011;10088;47.946;2.532;2022-12-07T05:44:44;67.60;;;12.27;;
19854;SDS011;10088;47.946;2.532;2022-12-07T05:47:25;39.00;;;11.07;;
19854;SDS011;10088;47.946;2.532;2022-12-07T05:49:55;70.03;;;11.73;;
19854;SDS011;10088;47.946;2.532;2022-12-07T05:52:21;132.33;;;18.23;;
19854;SDS011;10088;47.946;2.532;2022-12-07T05:54:47;77.63;;;13.30;;
19854;SDS011;10088;47.946;2.532;2022-12-07T05:57:22;53.80;;;12.83;;
19854;SDS011;10088;47.946;2.532;2022-12-07T05:59:54;59.03;;;19.33;;
19854;SDS011;10088;47.946;2.532;2022-12-07T06:02:25;133.07;;;20.67;;
19854;SDS011;10088;47.946;2.532;2022-12-07T06:05:20;118.73;;;14.83;;
19854;SDS011;10088;47.946;2.532;2022-12-07T06:07:46;153.77;;;17.10;;
19854;SDS011;10088;47.946;2.532;2022-12-07T06:10:24;152.07;;;17.20;;
19854;SDS011;10088;47.946;2.532;2022-12-07T06:13:11;87.20;;;15.57;;
19854;SDS011;10088;47.946;2.532;2022-12-07T06:15:59;82.87;;;15.90;;
19854;SDS011;10088;47.946;2.532;2022-12-07T06:18:40;97.53;;;17.37;;
19854;SDS011;10088;47.946;2.532;2022-12-07T06:21:22;60.13;;;14.60;;
19854;SDS011;10088;47.946;2.532;2022-12-07T06:27:17;48.57;;;17.57;;
19854;SDS011;10088;47.946;2.532;2022-12-07T06:30:15;107.87;;;15.93;;
19854;SDS011;10088;47.946;2.532;2022-12-07T06:32:40;103.27;;;17.90;;
19854;SDS011;10088;47.946;2.532;2022-12-07T06:35:06;77.23;;;15.30;;
19854;SDS011;10088;47.946;2.532;2022-12-07T06:37:31;89.63;;;18.17;;
19854;SDS011;10088;47.946;2.532;2022-12-07T06:39:57;110.77;;;17.23;;
19854;SDS011;10088;47.946;2.532;2022-12-07T06:42:22;70.83;;;16.07;;
19854;SDS011;10088;47.946;2.532;2022-12-07T06:44:47;121.47;;;17.93;;
19854;SDS011;10088;47.946;2.532;2022-12-07T06:47:13;67.73;;;14.63;;
19854;SDS011;10088;47.946;2.532;2022-12-07T06:49:38;111.33;;;16.30;;
19854;SDS011;10088;47.946;2.532;2022-12-07T06:52:03;64.20;;;14.50;;
19854;SDS011;10088;47.946;2.532;2022-12-07T06:54:29;204.97;;;21.23;;
19854;SDS011;10088;47.946;2.532;2022-12-07T06:56:55;68.20;;;14.47;;
19854;SDS011;10088;47.946;2.532;2022-12-07T06:59:20;48.73;;;14.03;;
19854;SDS011;10088;47.946;2.532;2022-12-07T07:01:45;117.73;;;17.13;;
19854;SDS011;10088;47.946;2.532;2022-12-07T07:04:11;79.43;;;13.93;;
19854;SDS011;10088;47.946;2.532;2022-12-07T07:06:36;45.27;;;14.50;;
19854;SDS011;10088;47.946;2.532;2022-12-07T07:09:01;117.20;;;16.27;;
19854;SDS011;10088;47.946;2.532;2022-12-07T07:11:27;65.53;;;13.93;;
19854;SDS011;10088;47.946;2.532;2022-12-07T07:13:52;159.83;;;17.47;;
19854;SDS011;10088;47.946;2.532;2022-12-07T07:16:18;155.07;;;17.43;;
19854;SDS011;10088;47.946;2.532;2022-12-07T07:18:44;40.90;;;13.53;;
19854;SDS011;10088;47.946;2.532;2022-12-07T07:21:09;102.07;;;16.37;;
19854;SDS011;10088;47.946;2.532;2022-12-07T07:23:34;119.87;;;16.33;;
19854;SDS011;10088;47.946;2.532;2022-12-07T07:26:00;86.40;;;17.10;;
19854;SDS011;10088;47.946;2.532;2022-12-07T07:28:25;94.03;;;17.77;;
19854;SDS011;10088;47.946;2.532;2022-12-07T07:30:52;112.50;;;15.57;;
19854;SDS011;10088;47.946;2.532;2022-12-07T07:33:17;146.13;;;18.57;;
19854;SDS011;10088;47.946;2.532;2022-12-07T07:35:42;222.53;;;21.03;;
19854;SDS011;10088;47.946;2.532;2022-12-07T07:38:08;244.23;;;23.30;;
19854;SDS011;10088;47.946;2.532;2022-12-07T07:40:33;248.87;;;22.23;;
19854;SDS011;10088;47.946;2.532;2022-12-07T07:42:59;251.47;;;21.00;;
19854;SDS011;10088;47.946;2.532;2022-12-07T07:45:25;259.13;;;21.43;;
19854;SDS011;10088;47.946;2.532;2022-12-07T07:47:50;111.60;;;16.23;;
19854;SDS011;10088;47.946;2.532;2022-12-07T07:50:16;149.97;;;17.90;;
19854;SDS011;10088;47.946;2.532;2022-12-07T07:52:42;247.03;;;22.37;;
19854;SDS011;10088;47.946;2.532;2022-12-07T07:55:07;204.60;;;18.10;;
19854;SDS011;10088;47.946;2.532;2022-12-07T07:57:36;160.53;;;18.00;;
19854;SDS011;10088;47.946;2.532;2022-12-07T08:00:03;190.03;;;16.57;;
19854;SDS011;10088;47.946;2.532;2022-12-07T08:02:29;214.47;;;19.17;;
19854;SDS011;10088;47.946;2.532;2022-12-07T08:04:54;254.60;;;23.20;;
19854;SDS011;10088;47.946;2.532;2022-12-07T08:07:20;133.67;;;15.43;;
19854;SDS011;10088;47.946;2.532;2022-12-07T08:09:45;289.07;;;23.87;;
19854;SDS011;10088;47.946;2.532;2022-12-07T08:12:10;192.33;;;18.50;;
19854;SDS011;10088;47.946;2.532;2022-12-07T08:14:35;198.47;;;18.30;;
19854;SDS011;10088;47.946;2.532;2022-12-07T08:17:01;144.90;;;15.30;;
19854;SDS011;10088;47.946;2.532;2022-12-07T08:19:26;229.97;;;18.50;;
19854;SDS011;10088;47.946;2.532;2022-12-07T08:21:52;220.70;;;18.07;;
19854;SDS011;10088;47.946;2.532;2022-12-07T08:24:17;279.17;;;19.30;;
19854;SDS011;10088;47.946;2.532;2022-12-07T08:26:42;205.63;;;17.87;;
19854;SDS011;10088;47.946;2.532;2022-12-07T08:29:08;131.20;;;15.00;;
19854;SDS011;10088;47.946;2.532;2022-12-07T08:31:33;252.80;;;18.40;;
19854;SDS011;10088;47.946;2.532;2022-12-07T08:33:58;234.73;;;19.90;;
19854;SDS011;10088;47.946;2.532;2022-12-07T08:36:24;192.87;;;16.33;;
19854;SDS011;10088;47.946;2.532;2022-12-07T08:38:49;131.10;;;15.73;;
19854;SDS011;10088;47.946;2.532;2022-12-07T08:41:15;135.87;;;14.23;;
19854;SDS011;10088;47.946;2.532;2022-12-07T08:43:40;129.03;;;15.67;;
19854;SDS011;10088;47.946;2.532;2022-12-07T08:46:10;135.47;;;15.20;;
19854;SDS011;10088;47.946;2.532;2022-12-07T08:48:38;81.73;;;11.60;;
19854;SDS011;10088;47.946;2.532;2022-12-07T08:51:04;139.60;;;13.07;;
19854;SDS011;10088;47.946;2.532;2022-12-07T08:53:29;162.43;;;15.47;;
19854;SDS011;10088;47.946;2.532;2022-12-07T08:55:55;209.47;;;15.50;;
19854;SDS011;10088;47.946;2.532;2022-12-07T08:58:21;165.03;;;15.90;;
19854;SDS011;10088;47.946;2.532;2022-12-07T09:00:46;155.83;;;15.70;;
19854;SDS011;10088;47.946;2.532;2022-12-07T09:03:11;131.77;;;14.30;;
19854;SDS011;10088;47.946;2.532;2022-12-07T09:05:36;138.07;;;14.33;;
19854;SDS011;10088;47.946;2.532;2022-12-07T09:08:02;161.20;;;16.23;;
19854;SDS011;10088;47.946;2.532;2022-12-07T09:10:28;140.20;;;15.43;;
19854;SDS011;10088;47.946;2.532;2022-12-07T09:12:53;146.60;;;15.23;;
19854;SDS011;10088;47.946;2.532;2022-12-07T09:15:18;107.33;;;12.87;;
19854;SDS011;10088;47.946;2.532;2022-12-07T09:17:44;121.97;;;15.07;;
19854;SDS011;10088;47.946;2.532;2022-12-07T09:20:09;89.87;;;14.67;;
19854;SDS011;10088;47.946;2.532;2022-12-07T09:22:35;92.60;;;12.50;;
19854;SDS011;10088;47.946;2.532;2022-12-07T09:25:00;108.47;;;11.07;;
19854;SDS011;10088;47.946;2.532;2022-12-07T09:27:26;100.90;;;13.67;;
19854;SDS011;10088;47.946;2.532;2022-12-07T09:29:51;90.80;;;13.97;;
19854;SDS011;10088;47.946;2.532;2022-12-07T09:32:17;154.20;;;15.10;;
19854;SDS011;10088;47.946;2.532;2022-12-07T09:34:42;88.23;;;13.10;;
19854;SDS011;10088;47.946;2.532;2022-12-07T09:37:07;76.33;;;12.50;;
19854;SDS011;10088;47.946;2.532;2022-12-07T09:39:33;83.83;;;13.23;;
19854;SDS011;10088;47.946;2.532;2022-12-07T09:41:58;66.13;;;12.57;;
19854;SDS011;10088;47.946;2.532;2022-12-07T09:44:27;49.23;;;12.77;;
19854;SDS011;10088;47.946;2.532;2022-12-07T09:46:53;105.07;;;13.77;;
19854;SDS011;10088;47.946;2.532;2022-12-07T09:49:19;62.13;;;12.57;;
19854;SDS011;10088;47.946;2.532;2022-12-07T09:51:45;39.43;;;11.53;;
19854;SDS011;10088;47.946;2.532;2022-12-07T09:54:14;62.57;;;13.10;;
19854;SDS011;10088;47.946;2.532;2022-12-07T09:56:41;69.97;;;13.77;;
19854;SDS011;10088;47.946;2.532;2022-12-07T09:59:09;90.87;;;14.07;;
19854;SDS011;10088;47.946;2.532;2022-12-07T10:01:37;60.13;;;12.23;;
19854;SDS011;10088;47.946;2.532;2022-12-07T10:04:10;48.43;;;12.97;;
19854;SDS011;10088;47.946;2.532;2022-12-07T10:06:37;39.13;;;10.93;;
19854;SDS011;10088;47.946;2.532;2022-12-07T10:09:08;62.40;;;12.20;;
19854;SDS011;10088;47.946;2.532;2022-12-07T10:11:34;59.33;;;12.23;;
19854;SDS011;10088;47.946;2.532;2022-12-07T10:14:10;38.40;;;10.93;;
19854;SDS011;10088;47.946;2.532;2022-12-07T10:16:39;37.10;;;12.37;;
19854;SDS011;10088;47.946;2.532;2022-12-07T10:19:39;43.33;;;11.33;;
19854;SDS011;10088;47.946;2.532;2022-12-07T10:24:26;32.73;;;12.57;;
19854;SDS011;10088;47.946;2.532;2022-12-07T10:26:52;30.57;;;12.37;;
19854;SDS011;10088;47.946;2.532;2022-12-07T10:29:22;44.50;;;12.83;;
19854;SDS011;10088;47.946;2.532;2022-12-07T10:31:58;33.17;;;13.17;;
19854;SDS011;10088;47.946;2.532;2022-12-07T10:34:25;26.80;;;12.77;;
19854;SDS011;10088;47.946;2.532;2022-12-07T10:36:52;27.60;;;12.57;;
19854;SDS011;10088;47.946;2.532;2022-12-07T10:39:18;24.80;;;12.73;;
19854;SDS011;10088;47.946;2.532;2022-12-07T10:41:54;24.90;;;12.77;;
19854;SDS011;10088;47.946;2.532;2022-12-07T10:44:21;21.80;;;12.40;;
19854;SDS011;10088;47.946;2.532;2022-12-07T10:46:53;31.07;;;12.97;;
19854;SDS011;10088;47.946;2.532;2022-12-07T11:00:24;31.90;;;13.43;;
19854;SDS011;10088;47.946;2.532;2022-12-07T11:03:02;30.03;;;13.87;;
19854;SDS011;10088;47.946;2.532;2022-12-07T11:08:54;25.17;;;12.63;;
19854;SDS011;10088;47.946;2.532;2022-12-07T11:11:00;22.80;;;11.97;;
19854;SDS011;10088;47.946;2.532;2022-12-07T11:13:35;20.23;;;11.80;;
19854;SDS011;10088;47.946;2.532;2022-12-07T11:37:01;24.40;;;12.83;;
19854;SDS011;10088;47.946;2.532;2022-12-07T11:39:45;22.57;;;13.87;;
19854;SDS011;10088;47.946;2.532;2022-12-07T11:42:19;27.57;;;12.90;;
19854;SDS011;10088;47.946;2.532;2022-12-07T11:54:32;24.80;;;13.83;;
19854;SDS011;10088;47.946;2.532;2022-12-07T12:00:19;27.10;;;14.40;;
19854;SDS011;10088;47.946;2.532;2022-12-07T12:22:47;18.90;;;12.57;;
19854;SDS011;10088;47.946;2.532;2022-12-07T12:25:28;22.70;;;13.23;;
19854;SDS011;10088;47.946;2.532;2022-12-07T12:27:55;24.20;;;13.03;;
19854;SDS011;10088;47.946;2.532;2022-12-07T12:30:37;19.07;;;13.37;;
19854;SDS011;10088;47.946;2.532;2022-12-07T12:33:13;20.17;;;12.50;;
19854;SDS011;10088;47.946;2.532;2022-12-07T12:35:39;19.43;;;13.40;;
19854;SDS011;10088;47.946;2.532;2022-12-07T12:41:05;20.80;;;13.30;;
19854;SDS011;10088;47.946;2.532;2022-12-07T12:43:47;27.93;;;14.90;;
19854;SDS011;10088;47.946;2.532;2022-12-07T12:48:54;22.57;;;14.37;;
19854;SDS011;10088;47.946;2.532;2022-12-07T12:51:38;25.07;;;14.80;;
19854;SDS011;10088;47.946;2.532;2022-12-07T12:54:05;22.03;;;14.77;;
19854;SDS011;10088;47.946;2.532;2022-12-07T12:56:58;26.00;;;14.97;;
19854;SDS011;10088;47.946;2.532;2022-12-07T13:01:46;20.27;;;11.93;;
19854;SDS011;10088;47.946;2.532;2022-12-07T13:04:21;22.80;;;13.67;;
19854;SDS011;10088;47.946;2.532;2022-12-07T13:06:48;19.97;;;12.47;;
19854;SDS011;10088;47.946;2.532;2022-12-07T13:09:20;24.93;;;12.90;;
19854;SDS011;10088;47.946;2.532;2022-12-07T13:11:49;18.70;;;12.20;;
19854;SDS011;10088;47.946;2.532;2022-12-07T13:14:39;20.33;;;12.10;;
19854;SDS011;10088;47.946;2.532;2022-12-07T13:17:55;18.33;;;12.00;;
19854;SDS011;10088;47.946;2.532;2022-12-07T13:19:54;23.23;;;13.57;;
19854;SDS011;10088;47.946;2.532;2022-12-07T13:22:53;20.53;;;12.83;;
19854;SDS011;10088;47.946;2.532;2022-12-07T13:25:12;20.43;;;13.20;;
19854;SDS011;10088;47.946;2.532;2022-12-07T13:27:44;21.43;;;13.33;;
19854;SDS011;10088;47.946;2.532;2022-12-07T13:30:16;22.73;;;14.20;;
19854;SDS011;10088;47.946;2.532;2022-12-07T13:32:42;22.17;;;13.93;;
19854;SDS011;10088;47.946;2.532;2022-12-07T13:37:51;27.30;;;16.00;;
19854;SDS011;10088;47.946;2.532;2022-12-07T13:40:20;25.23;;;15.17;;
19854;SDS011;10088;47.946;2.532;2022-12-07T13:42:46;24.47;;;14.83;;
19854;SDS011;10088;47.946;2.532;2022-12-07T13:45:25;25.03;;;15.13;;
19854;SDS011;10088;47.946;2.532;2022-12-07T13:48:21;25.77;;;14.27;;
19854;SDS011;10088;47.946;2.532;2022-12-07T13:50:53;26.30;;;15.80;;
19854;SDS011;10088;47.946;2.532;2022-12-07T13:53:19;33.60;;;18.00;;
19854;SDS011;10088;47.946;2.532;2022-12-07T13:55:44;30.27;;;16.97;;
19854;SDS011;10088;47.946;2.532;2022-12-07T13:58:10;27.60;;;14.93;;
19854;SDS011;10088;47.946;2.532;2022-12-07T14:00:36;28.23;;;15.63;;
19854;SDS011;10088;47.946;2.532;2022-12-07T14:05:28;28.47;;;15.13;;
19854;SDS011;10088;47.946;2.532;2022-12-07T14:10:30;28.83;;;15.00;;
19854;SDS011;10088;47.946;2.532;2022-12-07T14:12:56;27.13;;;15.30;;
19854;SDS011;10088;47.946;2.532;2022-12-07T14:15:22;28.80;;;15.20;;
19854;SDS011;10088;47.946;2.532;2022-12-07T14:17:49;34.83;;;19.00;;
19854;SDS011;10088;47.946;2.532;2022-12-07T14:20:29;33.20;;;18.20;;
19854;SDS011;10088;47.946;2.532;2022-12-07T14:22:54;28.70;;;16.23;;
19854;SDS011;10088;47.946;2.532;2022-12-07T14:25:21;37.33;;;17.63;;
19854;SDS011;10088;47.946;2.532;2022-12-07T14:27:56;38.77;;;21.13;;
19854;SDS011;10088;47.946;2.532;2022-12-07T14:30:24;29.10;;;16.03;;
19854;SDS011;10088;47.946;2.532;2022-12-07T14:32:51;25.83;;;15.03;;
19854;SDS011;10088;47.946;2.532;2022-12-07T14:35:17;36.33;;;16.13;;
19854;SDS011;10088;47.946;2.532;2022-12-07T14:37:44;26.13;;;15.27;;
19854;SDS011;10088;47.946;2.532;2022-12-07T14:40:31;28.23;;;15.07;;
19854;SDS011;10088;47.946;2.532;2022-12-07T14:45:27;28.30;;;15.87;;
19854;SDS011;10088;47.946;2.532;2022-12-07T14:47:53;24.70;;;13.90;;
19854;SDS011;10088;47.946;2.532;2022-12-07T14:50:19;29.03;;;14.83;;
19854;SDS011;10088;47.946;2.532;2022-12-07T14:52:46;29.53;;;15.27;;
19854;SDS011;10088;47.946;2.532;2022-12-07T14:55:20;28.87;;;14.73;;
19854;SDS011;10088;47.946;2.532;2022-12-07T14:57:48;27.03;;;14.17;;
19854;SDS011;10088;47.946;2.532;2022-12-07T15:00:14;28.80;;;14.73;;
19854;SDS011;10088;47.946;2.532;2022-12-07T15:02:39;28.27;;;14.90;;
19854;SDS011;10088;47.946;2.532;2022-12-07T15:05:05;28.90;;;13.73;;
19854;SDS011;10088;47.946;2.532;2022-12-07T15:07:30;26.90;;;15.17;;
19854;SDS011;10088;47.946;2.532;2022-12-07T15:09:55;31.10;;;15.47;;
19854;SDS011;10088;47.946;2.532;2022-12-07T15:12:20;27.03;;;14.77;;
19854;SDS011;10088;47.946;2.532;2022-12-07T15:14:46;27.20;;;14.87;;
19854;SDS011;10088;47.946;2.532;2022-12-07T15:17:11;28.07;;;15.20;;
19854;SDS011;10088;47.946;2.532;2022-12-07T15:19:37;25.83;;;14.50;;
19854;SDS011;10088;47.946;2.532;2022-12-07T15:22:02;23.07;;;13.33;;
19854;SDS011;10088;47.946;2.532;2022-12-07T15:24:28;28.30;;;15.33;;
19854;SDS011;10088;47.946;2.532;2022-12-07T15:26:53;22.97;;;13.37;;
19854;SDS011;10088;47.946;2.532;2022-12-07T15:29:18;24.53;;;13.50;;
19854;SDS011;10088;47.946;2.532;2022-12-07T15:31:44;22.47;;;13.47;;
19854;SDS011;10088;47.946;2.532;2022-12-07T15:34:10;24.70;;;13.80;;
19854;SDS011;10088;47.946;2.532;2022-12-07T15:36:35;21.10;;;12.93;;
19854;SDS011;10088;47.946;2.532;2022-12-07T15:39:01;24.70;;;12.90;;
19854;SDS011;10088;47.946;2.532;2022-12-07T15:41:27;28.03;;;13.33;;
19854;SDS011;10088;47.946;2.532;2022-12-07T15:43:52;21.80;;;12.70;;
19854;SDS011;10088;47.946;2.532;2022-12-07T15:46:37;27.03;;;13.43;;
19854;SDS011;10088;47.946;2.532;2022-12-07T15:49:04;29.77;;;14.90;;
19854;SDS011;10088;47.946;2.532;2022-12-07T15:51:29;22.20;;;13.50;;
19854;SDS011;10088;47.946;2.532;2022-12-07T15:53:55;27.47;;;15.07;;
19854;SDS011;10088;47.946;2.532;2022-12-07T15:56:22;22.57;;;12.03;;
19854;SDS011;10088;47.946;2.532;2022-12-07T15:58:47;20.43;;;11.57;;
19854;SDS011;10088;47.946;2.532;2022-12-07T16:01:13;23.53;;;11.73;;
19854;SDS011;10088;47.946;2.532;2022-12-07T16:03:38;23.93;;;12.87;;
19854;SDS011;10088;47.946;2.532;2022-12-07T16:06:04;21.90;;;12.33;;
19854;SDS011;10088;47.946;2.532;2022-12-07T16:08:29;22.17;;;12.27;;
19854;SDS011;10088;47.946;2.532;2022-12-07T16:10:55;28.83;;;13.90;;
19854;SDS011;10088;47.946;2.532;2022-12-07T16:13:20;22.57;;;13.03;;
19854;SDS011;10088;47.946;2.532;2022-12-07T16:15:46;24.73;;;13.17;;
19854;SDS011;10088;47.946;2.532;2022-12-07T16:18:11;24.47;;;14.50;;
19854;SDS011;10088;47.946;2.532;2022-12-07T16:20:36;28.80;;;13.93;;
19854;SDS011;10088;47.946;2.532;2022-12-07T16:23:02;28.10;;;14.63;;
19854;SDS011;10088;47.946;2.532;2022-12-07T16:25:27;25.03;;;13.07;;
19854;SDS011;10088;47.946;2.532;2022-12-07T16:28:07;20.67;;;13.70;;
19854;SDS011;10088;47.946;2.532;2022-12-07T16:31:17;22.63;;;13.10;;
19854;SDS011;10088;47.946;2.532;2022-12-07T16:34:45;21.83;;;13.27;;
19854;SDS011;10088;47.946;2.532;2022-12-07T16:36:55;21.90;;;13.23;;
19854;SDS011;10088;47.946;2.532;2022-12-07T16:39:54;25.53;;;13.77;;
19854;SDS011;10088;47.946;2.532;2022-12-07T16:46:09;24.83;;;14.53;;
19854;SDS011;10088;47.946;2.532;2022-12-07T16:49:23;26.60;;;15.37;;